createdAt,value
2018-12-13T00:02:17.900Z,102605.66
2018-12-13T00:04:45.541Z,102600.13
2018-12-13T00:07:13.126Z,102593.22
2018-12-13T00:09:40.704Z,102601.14
2018-12-13T00:12:08.308Z,102598.17
2018-12-13T00:14:35.909Z,102602.52
2018-12-13T00:17:03.673Z,102603.92
2018-12-13T00:19:31.332Z,102594.54
2018-12-13T00:21:58.941Z,102596.70
2018-12-13T00:24:26.660Z,102594.66
2018-12-13T00:26:54.380Z,102590.42
2018-12-13T00:29:22.094Z,102592.31
2018-12-13T00:31:49.753Z,102592.44
2018-12-13T00:34:17.336Z,102593.81
2018-12-13T00:36:44.947Z,102592.53
2018-12-13T00:39:12.636Z,102582.66
2018-12-13T00:41:40.293Z,102589.69
2018-12-13T00:44:08.021Z,102590.57
2018-12-13T00:46:35.696Z,102591.49
2018-12-13T00:49:03.281Z,102591.49
2018-12-13T00:51:30.956Z,102592.37
2018-12-13T00:53:58.621Z,102601.36
2018-12-13T00:56:26.284Z,102598.67
2018-12-13T00:58:53.864Z,102606.37
2018-12-13T01:01:21.499Z,102604.08
2018-12-13T01:03:49.173Z,102603.31
2018-12-13T01:06:16.918Z,102604.08
2018-12-13T01:08:44.592Z,102602.92
2018-12-13T01:11:12.265Z,102599.34
2018-12-13T01:13:39.872Z,102605.87
2018-12-13T01:16:09.404Z,102605.36
2018-12-13T01:18:37.032Z,102596.37
2018-12-13T01:21:04.752Z,102592.92
2018-12-13T01:23:32.352Z,102596.28
2018-12-13T01:25:59.974Z,102595.67
2018-12-13T01:28:27.648Z,102594.27
2018-12-13T01:30:55.231Z,102596.34
2018-12-13T01:33:22.860Z,102589.68
2018-12-13T01:35:50.529Z,102586.63
2018-12-13T01:38:18.189Z,102594.33
2018-12-13T01:40:45.848Z,102585.22
2018-12-13T01:43:13.605Z,102584.73
2018-12-13T01:45:41.274Z,102586.50
2018-12-13T01:48:09.208Z,102583.45
2018-12-13T01:50:36.788Z,102574.95
2018-12-13T01:53:04.578Z,102578.80
2018-12-13T01:55:32.232Z,102580.09
2018-12-13T01:58:01.157Z,102580.88
2018-12-13T02:00:28.892Z,102579.20
2018-12-13T02:02:56.551Z,102580.48
2018-12-13T02:05:24.224Z,102577.43
2018-12-13T02:07:51.879Z,102585.74
2018-12-13T02:10:19.468Z,102579.20
2018-12-13T02:12:47.055Z,102574.95
2018-12-13T02:15:14.768Z,102574.59
2018-12-13T02:17:42.436Z,102570.22
2018-12-13T02:20:10.092Z,102568.05
2018-12-13T02:22:37.677Z,102567.92
2018-12-13T02:25:06.278Z,102561.52
2018-12-13T02:27:33.911Z,102561.91
2018-12-13T02:30:01.573Z,102561.30
2018-12-13T02:32:29.233Z,102566.43
2018-12-13T02:34:56.898Z,102566.34
2018-12-13T02:37:24.556Z,102570.95
2018-12-13T02:39:52.168Z,102567.38
2018-12-13T02:42:19.784Z,102564.32
2018-12-13T02:44:47.444Z,102569.72
2018-12-13T02:47:15.172Z,102567.16
2018-12-13T02:49:42.869Z,102567.95
2018-12-13T02:52:10.536Z,102566.14
2018-12-13T02:54:38.203Z,102567.83
2018-12-13T02:57:05.864Z,102565.93
2018-12-13T02:59:33.531Z,102562.75
2018-12-13T03:02:01.114Z,102567.00
2018-12-13T03:04:28.853Z,102563.02
2018-12-13T03:06:56.509Z,102559.45
2018-12-13T03:09:24.171Z,102559.45
2018-12-13T03:11:51.840Z,102558.17
2018-12-13T03:14:19.505Z,102552.81
2018-12-13T03:16:47.168Z,102555.39
2018-12-13T03:19:14.825Z,102552.33
2018-12-13T03:21:42.488Z,102551.45
2018-12-13T03:24:10.072Z,102547.08
2018-12-13T03:26:37.733Z,102541.95
2018-12-13T03:29:05.477Z,102541.95
2018-12-13T03:31:33.147Z,102544.02
2018-12-13T03:34:00.804Z,102541.95
2018-12-13T03:36:28.404Z,102534.25
2018-12-13T03:38:56.026Z,102535.14
2018-12-13T03:41:23.689Z,102532.70
2018-12-13T03:43:51.281Z,102530.13
2018-12-13T03:46:18.911Z,102527.56
2018-12-13T03:48:46.497Z,102531.14
2018-12-13T03:51:14.241Z,102529.73
2018-12-13T03:53:41.903Z,102531.02
2018-12-13T03:56:09.574Z,102529.64
2018-12-13T03:58:37.232Z,102531.29
2018-12-13T04:01:04.888Z,102530.92
2018-12-13T04:03:32.469Z,102534.25
2018-12-13T04:06:00.076Z,102529.91
2018-12-13T04:08:27.658Z,102529.39
2018-12-13T04:10:55.324Z,102531.20
2018-12-13T04:13:22.995Z,102526.95
2018-12-13T04:15:50.679Z,102522.98
2018-12-13T04:18:18.638Z,102519.93
2018-12-13T04:20:46.300Z,102520.33
2018-12-13T04:23:13.960Z,102512.38
2018-12-13T04:25:41.622Z,102513.17
2018-12-13T04:28:09.272Z,102510.48
2018-12-13T04:30:36.949Z,102513.45
2018-12-13T04:33:04.580Z,102516.41
2018-12-13T04:35:32.192Z,102511.95
2018-12-13T04:37:59.805Z,102516.20
2018-12-13T04:40:27.455Z,102513.23
2018-12-13T04:42:55.159Z,102509.88
2018-12-13T04:45:22.750Z,102510.67
2018-12-13T04:47:50.380Z,102509.78
2018-12-13T04:50:18.044Z,102506.34
2018-12-13T04:52:45.813Z,102502.48
2018-12-13T04:55:13.824Z,102507.62
2018-12-13T04:57:41.430Z,102502.48
2018-12-13T05:00:09.133Z,102482.91
2018-12-13T05:02:36.784Z,102498.00
2018-12-13T05:05:04.844Z,102496.63
2018-12-13T05:07:32.511Z,102493.33
2018-12-13T05:10:00.167Z,102487.37
2018-12-13T05:12:27.827Z,102494.23
2018-12-13T05:14:55.493Z,102492.09
2018-12-13T05:17:23.600Z,102487.91
2018-12-13T05:19:51.397Z,102484.50
2018-12-13T05:22:18.991Z,102476.59
2018-12-13T05:24:46.658Z,102484.07
2018-12-13T05:27:14.322Z,102480.00
2018-12-13T05:29:41.928Z,102490.80
2018-12-13T05:32:09.544Z,102483.90
2018-12-13T05:34:37.209Z,102482.00
2018-12-13T05:37:04.868Z,102474.95
2018-12-13T05:39:32.531Z,102475.07
2018-12-13T05:42:00.195Z,102472.91
2018-12-13T05:44:27.861Z,102473.30
2018-12-13T05:46:55.521Z,102469.95
2018-12-13T05:49:23.184Z,102469.55
2018-12-13T05:51:50.844Z,102469.95
2018-12-13T05:54:18.512Z,102469.95
2018-12-13T05:56:46.092Z,102465.98
2018-12-13T05:59:13.717Z,102465.09
2018-12-13T06:01:41.392Z,102463.33
2018-12-13T06:04:09.056Z,102466.77
2018-12-13T06:06:36.661Z,102464.60
2018-12-13T06:09:06.226Z,102460.23
2018-12-13T06:11:33.881Z,102465.27
2018-12-13T06:14:01.625Z,102465.05
2018-12-13T06:16:29.286Z,102473.62
2018-12-13T06:18:56.984Z,102476.84
2018-12-13T06:21:24.645Z,102471.33
2018-12-13T06:23:52.307Z,102473.89
2018-12-13T06:26:19.973Z,102473.89
2018-12-13T06:28:47.592Z,102477.33
2018-12-13T06:31:15.291Z,102481.18
2018-12-13T06:33:42.972Z,102478.61
2018-12-13T06:36:10.624Z,102478.61
2018-12-13T06:38:38.293Z,102479.14
2018-12-13T06:41:05.949Z,102476.84
2018-12-13T06:43:33.612Z,102487.14
2018-12-13T06:46:01.273Z,102488.42
2018-12-13T06:48:28.935Z,102492.27
2018-12-13T06:50:56.600Z,102482.02
2018-12-13T06:53:24.260Z,102490.72
2018-12-13T06:55:51.924Z,102490.63
2018-12-13T06:58:19.593Z,102490.84
2018-12-13T07:00:47.176Z,102487.48
2018-12-13T07:03:14.816Z,102486.60
2018-12-13T07:05:42.475Z,102483.38
2018-12-13T07:08:10.120Z,102486.55
2018-12-13T07:10:37.805Z,102484.88
2018-12-13T07:13:05.468Z,102489.34
2018-12-13T07:15:33.125Z,102484.21
2018-12-13T07:18:00.791Z,102483.55
2018-12-13T07:20:28.543Z,102481.99
2018-12-13T07:22:56.220Z,102476.99
2018-12-13T07:25:23.884Z,102481.45
2018-12-13T07:27:51.540Z,102480.27
2018-12-13T07:30:19.204Z,102477.95
2018-12-13T07:32:46.869Z,102476.77
2018-12-13T07:35:14.536Z,102477.28
2018-12-13T07:37:42.183Z,102477.02
2018-12-13T07:40:09.856Z,102474.45
2018-12-13T07:42:37.459Z,102487.48
2018-12-13T07:45:05.494Z,102484.65
2018-12-13T07:47:33.153Z,102483.59
2018-12-13T07:50:01.632Z,102478.95
2018-12-13T07:52:29.219Z,102475.98
2018-12-13T07:54:56.856Z,102478.27
2018-12-13T07:57:24.613Z,102472.88
2018-12-13T07:59:52.285Z,102474.37
2018-12-13T08:02:19.948Z,102471.14
2018-12-13T08:04:47.613Z,102470.37
2018-12-13T08:07:15.236Z,102471.14
2018-12-13T08:09:42.941Z,102470.74
2018-12-13T08:12:10.601Z,102465.61
2018-12-13T08:14:38.253Z,102468.58
2018-12-13T08:17:05.928Z,102470.74
2018-12-13T08:19:33.536Z,102473.43
2018-12-13T08:22:01.118Z,102479.56
2018-12-13T08:24:28.725Z,102478.02
2018-12-13T08:26:56.376Z,102474.25
2018-12-13T08:29:24.032Z,102470.26
2018-12-13T08:31:51.705Z,102464.73
2018-12-13T08:34:19.362Z,102464.27
2018-12-13T08:36:46.940Z,102473.19
2018-12-13T08:39:14.548Z,102476.36
2018-12-13T08:41:42.141Z,102475.02
2018-12-13T08:44:09.808Z,102476.23
2018-12-13T08:46:37.399Z,102482.98
2018-12-13T08:49:05.140Z,102480.13
2018-12-13T08:51:32.795Z,102482.14
2018-12-13T08:54:00.460Z,102477.22
2018-12-13T08:56:28.126Z,102480.67
2018-12-13T08:58:55.992Z,102475.55
2018-12-13T09:01:23.651Z,102474.66
2018-12-13T09:03:51.307Z,102472.85
2018-12-13T09:06:18.912Z,102480.00
2018-12-13T09:08:46.540Z,102482.28
2018-12-13T09:11:14.152Z,102472.30
2018-12-13T09:13:41.764Z,102475.59
2018-12-13T09:16:09.433Z,102479.84
2018-12-13T09:18:37.148Z,102483.78
2018-12-13T09:21:04.757Z,102486.06
2018-12-13T09:23:32.416Z,102480.94
2018-12-13T09:26:00.075Z,102483.10
2018-12-13T09:28:27.832Z,102483.50
2018-12-13T09:30:55.509Z,102492.48
2018-12-13T09:33:23.174Z,102491.59
2018-12-13T09:35:50.836Z,102491.20
2018-12-13T09:38:18.499Z,102486.55
2018-12-13T09:40:46.156Z,102490.04
2018-12-13T09:43:13.787Z,102483.50
2018-12-13T09:45:41.395Z,102480.13
2018-12-13T09:48:09.034Z,102480.25
2018-12-13T09:50:36.704Z,102472.55
2018-12-13T09:53:04.359Z,102476.73
2018-12-13T09:55:32.037Z,102467.35
2018-12-13T09:57:59.705Z,102471.59
2018-12-13T10:00:27.465Z,102475.25
2018-12-13T10:02:55.215Z,102471.13
2018-12-13T10:05:22.892Z,102467.48
2018-12-13T10:07:50.557Z,102468.48
2018-12-13T10:10:18.216Z,102470.37
2018-12-13T10:12:46.564Z,102464.27
2018-12-13T10:15:14.204Z,102461.98
2018-12-13T10:17:41.824Z,102459.34
2018-12-13T10:20:09.456Z,102451.64
2018-12-13T10:22:37.072Z,102456.30
2018-12-13T10:25:05.256Z,102456.53
2018-12-13T10:27:32.873Z,102449.31
2018-12-13T10:30:00.545Z,102448.23
2018-12-13T10:32:28.209Z,102448.06
2018-12-13T10:34:55.879Z,102444.81
2018-12-13T10:37:23.537Z,102445.01
2018-12-13T10:39:51.197Z,102444.73
2018-12-13T10:42:18.860Z,102438.38
2018-12-13T10:44:46.520Z,102446.69
2018-12-13T10:47:14.190Z,102436.13
2018-12-13T10:49:41.849Z,102438.02
2018-12-13T10:52:09.512Z,102437.61
2018-12-13T10:54:37.263Z,102437.61
2018-12-13T10:57:04.944Z,102435.05
2018-12-13T10:59:32.598Z,102438.21
2018-12-13T11:02:02.006Z,102437.05
2018-12-13T11:04:29.601Z,102436.64
2018-12-13T11:06:57.332Z,102439.33
2018-12-13T11:09:24.996Z,102440.33
2018-12-13T11:11:52.588Z,102438.23
2018-12-13T11:14:20.220Z,102431.05
2018-12-13T11:16:47.826Z,102432.70
2018-12-13T11:19:15.439Z,102442.80
2018-12-13T11:21:43.032Z,102433.70
2018-12-13T11:24:10.688Z,102432.41
2018-12-13T11:26:38.278Z,102438.75
2018-12-13T11:29:17.664Z,102437.17
2018-12-13T11:31:45.328Z,102433.32
2018-12-13T11:34:13.092Z,102438.46
2018-12-13T11:36:40.760Z,102434.20
2018-12-13T11:39:08.380Z,102437.17
2018-12-13T11:41:36.168Z,102442.20
2018-12-13T11:44:03.852Z,102438.55
2018-12-13T11:46:32.455Z,102446.74
2018-12-13T11:49:00.118Z,102439.13
2018-12-13T11:51:28.409Z,102444.87
2018-12-13T11:53:56.164Z,102439.21
2018-12-13T11:56:23.802Z,102441.70
2018-12-13T11:58:51.460Z,102421.41
2018-12-13T12:01:19.125Z,102431.70
2018-12-13T12:03:46.736Z,102426.65
2018-12-13T12:06:14.348Z,102424.59
2018-12-13T12:08:42.003Z,102421.74
2018-12-13T12:11:09.598Z,102425.67
2018-12-13T12:13:37.337Z,102427.48
2018-12-13T12:16:04.972Z,102423.22
2018-12-13T12:18:32.665Z,102426.27
2018-12-13T12:21:00.324Z,102421.53
2018-12-13T12:23:27.988Z,102418.48
2018-12-13T12:25:55.656Z,102418.08
2018-12-13T12:28:23.311Z,102411.38
2018-12-13T12:30:50.976Z,102405.35
2018-12-13T12:33:18.640Z,102405.72
2018-12-13T12:35:46.407Z,102408.12
2018-12-13T12:38:14.044Z,102411.56
2018-12-13T12:40:41.733Z,102413.25
2018-12-13T12:43:09.397Z,102412.85
2018-12-13T12:45:37.053Z,102403.55
2018-12-13T12:48:05.336Z,102404.14
2018-12-13T12:50:33.205Z,102402.86
2018-12-13T12:53:00.801Z,102400.48
2018-12-13T12:55:28.523Z,102403.57
2018-12-13T12:57:56.193Z,102398.91
2018-12-13T13:00:23.855Z,102408.02
2018-12-13T13:02:51.965Z,102411.47
2018-12-13T13:05:19.585Z,102413.85
2018-12-13T13:07:47.253Z,102416.23
2018-12-13T13:10:14.865Z,102424.22
2018-12-13T13:12:42.459Z,102419.77
2018-12-13T13:15:10.072Z,102422.05
2018-12-13T13:17:37.700Z,102413.83
2018-12-13T13:20:05.464Z,102417.56
2018-12-13T13:22:33.060Z,102408.66
2018-12-13T13:25:00.878Z,102415.52
2018-12-13T13:27:28.478Z,102419.37
2018-12-13T13:29:56.222Z,102417.20
2018-12-13T13:32:23.881Z,102411.14
2018-12-13T13:34:51.544Z,102410.27
2018-12-13T13:37:19.156Z,102415.40
2018-12-13T13:39:46.768Z,102409.78
2018-12-13T13:42:14.432Z,102408.98
2018-12-13T13:44:42.265Z,102411.64
2018-12-13T13:47:10.621Z,102401.05
2018-12-13T13:49:38.241Z,102405.90
2018-12-13T13:52:05.907Z,102401.16
2018-12-13T13:54:33.562Z,102401.28
2018-12-13T13:57:01.229Z,102397.20
2018-12-13T13:59:28.889Z,102406.30
2018-12-13T14:01:56.557Z,102403.33
2018-12-13T14:04:24.220Z,102394.85
2018-12-13T14:06:51.889Z,102394.85
2018-12-13T14:09:19.541Z,102402.84
2018-12-13T14:11:47.200Z,102398.48
2018-12-13T14:14:14.958Z,102399.97
2018-12-13T14:16:42.633Z,102404.22
2018-12-13T14:19:10.296Z,102403.80
2018-12-13T14:21:37.951Z,102401.55
2018-12-13T14:24:05.620Z,102406.28
2018-12-13T14:26:33.380Z,102402.19
2018-12-13T14:29:01.052Z,102405.16
2018-12-13T14:31:28.712Z,102404.16
2018-12-13T14:33:56.376Z,102402.39
2018-12-13T14:36:24.040Z,102397.46
2018-12-13T14:38:51.656Z,102402.37
2018-12-13T14:41:19.268Z,102408.19
2018-12-13T14:43:46.924Z,102411.44
2018-12-13T14:46:14.515Z,102406.98
2018-12-13T14:48:42.123Z,102400.77
2018-12-13T14:51:09.717Z,102391.45
2018-12-13T14:53:37.373Z,102393.63
2018-12-13T14:56:05.027Z,102388.97
2018-12-13T14:58:32.700Z,102391.66
2018-12-13T15:01:00.294Z,102396.27
2018-12-13T15:03:28.020Z,102402.61
2018-12-13T15:05:55.604Z,102393.59
2018-12-13T15:08:23.240Z,102402.97
2018-12-13T15:10:50.834Z,102403.13
2018-12-13T15:13:18.472Z,102409.46
2018-12-13T15:15:46.128Z,102406.30
2018-12-13T15:18:14.716Z,102404.77
2018-12-13T15:20:42.382Z,102403.41
2018-12-13T15:23:10.040Z,102402.00
2018-12-13T15:25:37.721Z,102406.65
2018-12-13T15:28:05.372Z,102405.37
2018-12-13T15:30:32.976Z,102401.12
2018-12-13T15:33:00.591Z,102400.72
2018-12-13T15:35:28.256Z,102394.50
2018-12-13T15:37:55.836Z,102399.35
2018-12-13T15:40:23.472Z,102394.09
2018-12-13T15:42:51.100Z,102402.20
2018-12-13T15:45:19.852Z,102393.01
2018-12-13T15:47:47.579Z,102396.46
2018-12-13T15:50:15.252Z,102395.17
2018-12-13T15:52:42.919Z,102398.23
2018-12-13T15:55:10.533Z,102396.55
2018-12-13T15:57:38.140Z,102394.89
2018-12-13T16:00:09.093Z,102388.56
2018-12-13T16:02:36.740Z,102390.65
2018-12-13T16:05:05.532Z,102397.15
2018-12-13T16:07:33.200Z,102386.80
2018-12-13T16:10:03.813Z,102386.40
2018-12-13T16:12:30.514Z,102389.45
2018-12-13T16:17:37.468Z,102398.55
2018-12-13T16:20:05.947Z,102399.35
2018-12-13T16:22:33.702Z,102393.30
2018-12-13T16:25:01.380Z,102397.66
2018-12-13T16:27:29.016Z,102400.32
2018-12-13T16:29:56.880Z,102395.19
2018-12-13T16:32:24.572Z,102391.25
2018-12-13T16:34:52.347Z,102394.22
2018-12-13T16:37:19.976Z,102392.13
2018-12-13T16:39:47.584Z,102384.31
2018-12-13T16:42:15.225Z,102387.41
2018-12-13T16:44:42.890Z,102390.37
2018-12-13T16:47:10.535Z,102382.06
2018-12-13T16:49:38.218Z,102383.91
2018-12-13T16:52:06.080Z,102393.49
2018-12-13T16:54:33.741Z,102393.01
2018-12-13T16:57:01.409Z,102398.42
2018-12-13T16:59:28.995Z,102390.20
2018-12-13T17:01:56.596Z,102394.45
2018-12-13T17:04:24.292Z,102394.85
2018-12-13T17:06:51.955Z,102388.31
2018-12-13T17:09:19.572Z,102394.73
2018-12-13T17:11:47.185Z,102397.70
2018-12-13T17:14:14.842Z,102392.84
2018-12-13T17:16:42.506Z,102395.05
2018-12-13T17:19:10.164Z,102367.41
2018-12-13T17:21:37.824Z,102389.31
2018-12-13T17:24:05.494Z,102394.44
2018-12-13T17:26:33.096Z,102393.83
2018-12-13T17:29:00.725Z,102401.89
2018-12-13T17:31:28.380Z,102396.68
2018-12-13T17:33:56.036Z,102397.56
2018-12-13T17:36:23.705Z,102398.05
2018-12-13T17:38:51.369Z,102387.78
2018-12-13T17:41:18.973Z,102384.86
2018-12-13T17:43:46.588Z,102386.50
2018-12-13T17:46:14.208Z,102390.75
2018-12-13T17:48:41.920Z,102391.15
2018-12-13T17:51:09.585Z,102391.15
2018-12-13T17:53:37.244Z,102387.78
2018-12-13T17:56:04.833Z,102382.17
2018-12-13T17:58:32.468Z,102376.16
2018-12-13T18:01:00.132Z,102383.73
2018-12-13T18:03:27.896Z,102386.17
2018-12-13T18:05:55.551Z,102396.07
2018-12-13T18:08:23.218Z,102395.27
2018-12-13T18:10:50.896Z,102397.23
2018-12-13T18:13:18.650Z,102395.47
2018-12-13T18:15:46.385Z,102390.48
2018-12-13T18:18:13.996Z,102396.81
2018-12-13T18:20:41.585Z,102391.56
2018-12-13T18:23:09.200Z,102395.41
2018-12-13T18:25:36.865Z,102374.70
2018-12-13T18:28:04.476Z,102395.69
2018-12-13T18:30:32.085Z,102402.90
2018-12-13T18:32:59.744Z,102398.53
2018-12-13T18:35:27.412Z,102401.09
2018-12-13T18:37:55.077Z,102403.58
2018-12-13T18:40:22.733Z,102408.30
2018-12-13T18:42:50.397Z,102405.13
2018-12-13T18:45:19.992Z,102403.85
2018-12-13T18:47:47.872Z,102409.78
2018-12-13T18:50:15.540Z,102412.34
2018-12-13T18:52:43.203Z,102416.19
2018-12-13T18:55:10.964Z,102418.36
2018-12-13T18:57:38.628Z,102420.31
2018-12-13T19:00:07.213Z,102420.19
2018-12-13T19:02:34.878Z,102417.14
2018-12-13T19:05:02.541Z,102415.33
2018-12-13T19:07:30.204Z,102419.18
2018-12-13T19:09:57.860Z,102416.22
2018-12-13T19:12:25.528Z,102415.33
2018-12-13T19:14:53.192Z,102412.28
2018-12-13T19:17:21.056Z,102419.09
2018-12-13T19:19:48.664Z,102419.09
2018-12-13T19:22:16.276Z,102416.80
2018-12-13T19:24:43.948Z,102415.92
2018-12-13T19:27:11.537Z,102411.55
2018-12-13T19:29:39.176Z,102414.39
2018-12-13T19:32:06.829Z,102408.38
2018-12-13T19:34:34.492Z,102402.36
2018-12-13T19:37:02.137Z,102406.61
2018-12-13T19:39:29.753Z,102403.52
2018-12-13T19:41:57.381Z,102404.31
2018-12-13T19:44:24.998Z,102393.39
2018-12-13T19:46:52.581Z,102408.96
2018-12-13T19:49:20.208Z,102403.71
2018-12-13T19:51:47.820Z,102403.31
2018-12-13T19:54:15.404Z,102407.16
2018-12-13T19:56:43.052Z,102409.33
2018-12-13T19:59:10.709Z,102412.02
2018-12-13T20:01:38.368Z,102408.66
2018-12-13T20:04:06.243Z,102415.86
2018-12-13T20:06:33.901Z,102424.83
2018-12-13T20:09:01.569Z,102422.27
2018-12-13T20:11:29.172Z,102424.83
2018-12-13T20:13:56.789Z,102427.80
2018-12-13T20:16:24.456Z,102425.72
2018-12-13T20:18:53.962Z,102419.83
2018-12-13T20:21:21.628Z,102427.73
2018-12-13T20:23:49.272Z,102425.92
2018-12-13T20:26:16.943Z,102425.92
2018-12-13T20:28:44.534Z,102433.62
2018-12-13T20:31:12.169Z,102430.97
2018-12-13T20:33:39.749Z,102431.45
2018-12-13T20:36:07.392Z,102435.70
2018-12-13T20:38:34.975Z,102435.70
2018-12-13T20:41:02.892Z,102433.02
2018-12-13T20:43:30.585Z,102433.31
2018-12-13T20:45:58.247Z,102438.45
2018-12-13T20:48:26.121Z,102443.45
2018-12-13T20:50:54.297Z,102439.48
2018-12-13T20:53:21.897Z,102445.89
2018-12-13T20:55:49.929Z,102445.41
2018-12-13T20:58:17.593Z,102440.06
2018-12-13T21:00:45.248Z,102447.23
2018-12-13T21:03:12.911Z,102445.34
2018-12-13T21:05:40.576Z,102449.97
2018-12-13T21:08:09.644Z,102454.22
2018-12-13T21:10:39.223Z,102456.17
2018-12-13T21:13:06.877Z,102450.79
2018-12-13T21:15:34.516Z,102455.91
2018-12-13T21:18:02.121Z,102459.39
2018-12-13T21:20:30.039Z,102455.83
2018-12-13T21:22:57.907Z,102454.94
2018-12-13T21:25:25.564Z,102459.45
2018-12-13T21:27:53.233Z,102458.93
2018-12-13T21:30:21.113Z,102458.84
2018-12-13T21:32:48.720Z,102455.88
2018-12-13T21:35:16.306Z,102448.58
2018-12-13T21:37:43.911Z,102448.45
2018-12-13T21:40:11.497Z,102442.94
2018-12-13T21:42:39.203Z,102451.36
2018-12-13T21:45:06.877Z,102446.33
2018-12-13T21:47:34.535Z,102446.85
2018-12-13T21:50:02.196Z,102445.45
2018-12-13T21:52:29.861Z,102453.41
2018-12-13T21:54:57.524Z,102445.50
2018-12-13T21:57:25.479Z,102449.87
2018-12-13T21:59:54.398Z,102445.10
2018-12-13T22:02:22.253Z,102449.87
2018-12-13T22:04:49.963Z,102446.78
2018-12-13T22:07:17.740Z,102445.89
2018-12-13T22:09:45.660Z,102449.34
2018-12-13T22:12:13.241Z,102450.80
2018-12-13T22:14:40.901Z,102446.44
2018-12-13T22:17:08.541Z,102441.71
2018-12-13T22:19:36.197Z,102435.21
2018-12-13T22:22:03.832Z,102435.58
2018-12-13T22:24:31.524Z,102435.48
2018-12-13T22:26:59.184Z,102435.36
2018-12-13T22:29:26.855Z,102437.43
2018-12-13T22:31:54.888Z,102432.58
2018-12-13T22:34:22.497Z,102438.19
2018-12-13T22:36:50.424Z,102442.03
2018-12-13T22:39:18.116Z,102441.14
2018-12-13T22:41:45.782Z,102444.20
2018-12-13T22:44:13.388Z,102444.59
2018-12-13T22:46:41.004Z,102453.16
2018-12-13T22:49:08.669Z,102456.03
2018-12-13T22:51:36.255Z,102456.79
2018-12-13T22:54:03.900Z,102458.25
2018-12-13T22:56:31.552Z,102448.31
2018-12-13T22:59:00.032Z,102442.66
2018-12-13T23:01:27.801Z,102441.38
2018-12-13T23:03:55.464Z,102449.94
2018-12-13T23:06:23.945Z,102446.98
2018-12-13T23:08:51.608Z,102446.19
2018-12-13T23:11:19.272Z,102446.32
2018-12-13T23:13:46.934Z,102452.28
2018-12-13T23:16:14.593Z,102449.72
2018-12-13T23:18:42.256Z,102448.04
2018-12-13T23:21:09.923Z,102449.84
2018-12-13T23:23:37.548Z,102446.40
2018-12-13T23:26:05.144Z,102448.04
2018-12-13T23:28:32.808Z,102454.45
2018-12-13T23:31:00.472Z,102452.67
2018-12-13T23:33:28.136Z,102448.34
2018-12-13T23:35:55.745Z,102449.23
2018-12-13T23:38:23.352Z,102452.19
2018-12-13T23:40:51.021Z,102457.41
2018-12-13T23:43:18.676Z,102455.23
2018-12-13T23:45:46.349Z,102450.91
2018-12-13T23:48:14.003Z,102449.98
2018-12-13T23:50:41.668Z,102453.83
2018-12-13T23:53:09.295Z,102449.50
2018-12-13T23:55:36.994Z,102453.34
2018-12-13T23:58:04.663Z,102455.91
